Portada
METAR-TAF:

METAR-TAF

Aeropuertos :

Ushuaia, Argentina

Aeropuerto Internacional Malvinas Argentinas

latitud: 54-48S, longitud: 068-19W, altitud: 16 m

Observación

El informe se hizo hace 19 minutos, a las 10:00 UTC
Viento 25 kt del oeste-suroeste con ráfagas de 35 kt
Temperatura 5°C
Humedad 87%
Presión 1010 hPa
Visibilidad 10 km o más
Cielo nuboso a una altura de 2500 ft
chaparrones en las proximidades

METAR: SAWH 281000Z 25025G35KT 9999 VCSH BKN025 05/03 Q1010

Hora: 07:19 (10:19 UTC)

Pronóstico

El informe se hizo hace 5 horas y 19 minutos, a las 05:00 UTC
Pronóstico válido del 28 a las 06 UTC al 29 a las 06 UTC
Viento 20 kt del oeste con ráfagas de 30 kt
Visibilidad 10 km o más
Nubes dispersas a una altura de 3000 ft
Evolucionando progresivamente
del 28 a las 12 UTC al 28 a las 15 UTC
Visibilidad: 8000 m
Cielo cubierto a una altura de 2000 ft

TAF: SAWH 280500Z 2806/2906 27020G30KT 9999 SCT030 TX06/2819Z TN00/2812Z BECMG 2812/2815 8000 BRDZ OVC020

Observaciones y pronósticos meteorológicos de más de 4000 aeropuertos (mensajes METAR y TAF).

Los puntos amarillos y rojos representan las estaciones disponibles.

Ponga el ratón en el punto deseado para ver el nombre de la estación.

Haga clic para ver las observaciones y los pronósticos meteorológicos.

Para cambiar el mapa : haga clic en los botones verdes con una cruz de color negro para hacer un zoom, en el botón verde con un guión para alejar o en las flechas verdes para mapas adyacentes.


METAR-TAF: